sensor_id;sensor_type;location;lat;lon;timestamp;P1;durP1;ratioP1;P2;durP2;ratioP2
59038;SDS011;44824;43.376;19.630;2023-02-22T00:02:06;61.45;;;38.40;;
59038;SDS011;44824;43.376;19.630;2023-02-22T00:04:40;71.43;;;40.00;;
59038;SDS011;44824;43.376;19.630;2023-02-22T00:09:48;59.85;;;37.28;;
59038;SDS011;44824;43.376;19.630;2023-02-22T00:12:23;60.97;;;35.60;;
59038;SDS011;44824;43.376;19.630;2023-02-22T00:14:51;64.93;;;36.63;;
59038;SDS011;44824;43.376;19.630;2023-02-22T00:17:23;72.30;;;40.72;;
59038;SDS011;44824;43.376;19.630;2023-02-22T00:19:55;68.38;;;39.38;;
59038;SDS011;44824;43.376;19.630;2023-02-22T00:22:40;64.53;;;37.40;;
59038;SDS011;44824;43.376;19.630;2023-02-22T00:25:08;55.88;;;33.90;;
59038;SDS011;44824;43.376;19.630;2023-02-22T00:27:34;48.10;;;30.03;;
59038;SDS011;44824;43.376;19.630;2023-02-22T00:30:02;57.65;;;32.83;;
59038;SDS011;44824;43.376;19.630;2023-02-22T00:32:28;50.50;;;32.33;;
59038;SDS011;44824;43.376;19.630;2023-02-22T00:34:54;56.25;;;30.92;;
59038;SDS011;44824;43.376;19.630;2023-02-22T00:37:33;52.42;;;32.25;;
59038;SDS011;44824;43.376;19.630;2023-02-22T00:40:20;54.97;;;29.38;;
59038;SDS011;44824;43.376;19.630;2023-02-22T00:43:00;51.05;;;29.58;;
59038;SDS011;44824;43.376;19.630;2023-02-22T00:45:34;50.95;;;29.10;;
59038;SDS011;44824;43.376;19.630;2023-02-22T00:48:02;54.58;;;30.17;;
59038;SDS011;44824;43.376;19.630;2023-02-22T00:50:29;50.03;;;26.90;;
59038;SDS011;44824;43.376;19.630;2023-02-22T00:52:55;46.72;;;28.02;;
59038;SDS011;44824;43.376;19.630;2023-02-22T00:58:19;47.05;;;29.08;;
59038;SDS011;44824;43.376;19.630;2023-02-22T01:00:45;49.10;;;29.92;;
59038;SDS011;44824;43.376;19.630;2023-02-22T01:03:14;58.70;;;32.45;;
59038;SDS011;44824;43.376;19.630;2023-02-22T01:05:40;60.97;;;32.63;;
59038;SDS011;44824;43.376;19.630;2023-02-22T01:08:07;55.47;;;33.08;;
59038;SDS011;44824;43.376;19.630;2023-02-22T01:16:23;55.30;;;32.30;;
59038;SDS011;44824;43.376;19.630;2023-02-22T01:18:50;47.10;;;29.30;;
59038;SDS011;44824;43.376;19.630;2023-02-22T01:21:16;50.65;;;31.23;;
59038;SDS011;44824;43.376;19.630;2023-02-22T01:23:45;47.35;;;28.25;;
59038;SDS011;44824;43.376;19.630;2023-02-22T01:29:15;53.30;;;28.48;;
59038;SDS011;44824;43.376;19.630;2023-02-22T01:31:43;51.53;;;31.20;;
59038;SDS011;44824;43.376;19.630;2023-02-22T01:34:15;53.08;;;31.10;;
59038;SDS011;44824;43.376;19.630;2023-02-22T01:36:42;48.83;;;30.98;;
59038;SDS011;44824;43.376;19.630;2023-02-22T01:39:14;54.10;;;31.42;;
59038;SDS011;44824;43.376;19.630;2023-02-22T01:44:28;56.22;;;32.40;;
59038;SDS011;44824;43.376;19.630;2023-02-22T01:46:58;44.50;;;27.48;;
59038;SDS011;44824;43.376;19.630;2023-02-22T01:49:28;55.25;;;31.23;;
59038;SDS011;44824;43.376;19.630;2023-02-22T01:51:56;47.63;;;29.67;;
59038;SDS011;44824;43.376;19.630;2023-02-22T01:54:24;49.97;;;30.63;;
59038;SDS011;44824;43.376;19.630;2023-02-22T01:56:57;54.03;;;30.70;;
59038;SDS011;44824;43.376;19.630;2023-02-22T01:59:25;46.47;;;28.27;;
59038;SDS011;44824;43.376;19.630;2023-02-22T02:01:52;44.72;;;27.02;;
59038;SDS011;44824;43.376;19.630;2023-02-22T02:04:20;46.47;;;28.30;;
59038;SDS011;44824;43.376;19.630;2023-02-22T02:06:50;49.33;;;29.25;;
59038;SDS011;44824;43.376;19.630;2023-02-22T02:09:23;45.00;;;26.95;;
59038;SDS011;44824;43.376;19.630;2023-02-22T02:11:56;45.88;;;27.77;;
59038;SDS011;44824;43.376;19.630;2023-02-22T02:14:25;48.45;;;28.15;;
59038;SDS011;44824;43.376;19.630;2023-02-22T02:16:51;46.47;;;28.33;;
59038;SDS011;44824;43.376;19.630;2023-02-22T02:19:32;43.67;;;26.15;;
59038;SDS011;44824;43.376;19.630;2023-02-22T02:49:44;30.23;;;16.55;;
59038;SDS011;44824;43.376;19.630;2023-02-22T02:52:18;27.80;;;16.55;;
59038;SDS011;44824;43.376;19.630;2023-02-22T02:54:45;29.42;;;16.65;;
59038;SDS011;44824;43.376;19.630;2023-02-22T03:08:06;27.73;;;15.82;;
59038;SDS011;44824;43.376;19.630;2023-02-22T03:18:55;30.33;;;19.55;;
59038;SDS011;44824;43.376;19.630;2023-02-22T03:24:30;32.30;;;19.58;;
59038;SDS011;44824;43.376;19.630;2023-02-22T03:26:59;33.15;;;20.85;;
59038;SDS011;44824;43.376;19.630;2023-02-22T03:29:27;30.52;;;19.17;;
59038;SDS011;44824;43.376;19.630;2023-02-22T03:31:55;30.52;;;19.50;;
59038;SDS011;44824;43.376;19.630;2023-02-22T03:34:28;36.30;;;19.90;;
59038;SDS011;44824;43.376;19.630;2023-02-22T03:36:57;36.78;;;20.92;;
59038;SDS011;44824;43.376;19.630;2023-02-22T03:39:24;36.03;;;20.08;;
59038;SDS011;44824;43.376;19.630;2023-02-22T03:45:07;29.42;;;16.90;;
59038;SDS011;44824;43.376;19.630;2023-02-22T03:47:35;29.25;;;16.98;;
59038;SDS011;44824;43.376;19.630;2023-02-22T03:50:06;28.35;;;16.60;;
59038;SDS011;44824;43.376;19.630;2023-02-22T03:52:33;32.58;;;16.15;;
59038;SDS011;44824;43.376;19.630;2023-02-22T03:55:00;31.23;;;17.92;;
59038;SDS011;44824;43.376;19.630;2023-02-22T03:57:44;29.23;;;17.73;;
59038;SDS011;44824;43.376;19.630;2023-02-22T04:00:25;33.80;;;17.67;;
59038;SDS011;44824;43.376;19.630;2023-02-22T04:02:51;29.95;;;18.17;;
59038;SDS011;44824;43.376;19.630;2023-02-22T04:05:59;39.78;;;22.38;;
59038;SDS011;44824;43.376;19.630;2023-02-22T04:08:25;40.40;;;23.10;;
59038;SDS011;44824;43.376;19.630;2023-02-22T04:10:51;37.13;;;20.60;;
59038;SDS011;44824;43.376;19.630;2023-02-22T04:13:17;33.65;;;20.20;;
59038;SDS011;44824;43.376;19.630;2023-02-22T04:15:45;39.13;;;22.77;;
59038;SDS011;44824;43.376;19.630;2023-02-22T04:18:11;32.65;;;20.23;;
59038;SDS011;44824;43.376;19.630;2023-02-22T04:20:38;38.17;;;20.95;;
59038;SDS011;44824;43.376;19.630;2023-02-22T04:23:14;33.60;;;19.75;;
59038;SDS011;44824;43.376;19.630;2023-02-22T04:25:40;32.92;;;18.73;;
59038;SDS011;44824;43.376;19.630;2023-02-22T04:28:19;35.53;;;21.25;;
59038;SDS011;44824;43.376;19.630;2023-02-22T04:30:45;37.83;;;21.70;;
59038;SDS011;44824;43.376;19.630;2023-02-22T04:33:11;31.70;;;18.90;;
59038;SDS011;44824;43.376;19.630;2023-02-22T04:35:37;38.72;;;22.67;;
59038;SDS011;44824;43.376;19.630;2023-02-22T04:38:03;37.72;;;23.35;;
59038;SDS011;44824;43.376;19.630;2023-02-22T04:40:29;35.22;;;20.08;;
59038;SDS011;44824;43.376;19.630;2023-02-22T04:43:11;37.47;;;21.67;;
59038;SDS011;44824;43.376;19.630;2023-02-22T04:45:37;34.55;;;20.08;;
59038;SDS011;44824;43.376;19.630;2023-02-22T04:48:03;32.05;;;19.10;;
59038;SDS011;44824;43.376;19.630;2023-02-22T04:50:29;34.13;;;19.38;;
59038;SDS011;44824;43.376;19.630;2023-02-22T04:52:55;33.38;;;20.58;;
59038;SDS011;44824;43.376;19.630;2023-02-22T04:55:21;35.25;;;19.20;;
59038;SDS011;44824;43.376;19.630;2023-02-22T04:57:56;37.20;;;20.92;;
59038;SDS011;44824;43.376;19.630;2023-02-22T05:00:22;32.95;;;19.70;;
59038;SDS011;44824;43.376;19.630;2023-02-22T05:02:49;35.83;;;21.77;;
59038;SDS011;44824;43.376;19.630;2023-02-22T05:05:16;44.22;;;25.45;;
59038;SDS011;44824;43.376;19.630;2023-02-22T05:08:09;47.00;;;25.50;;
59038;SDS011;44824;43.376;19.630;2023-02-22T05:10:51;52.80;;;30.65;;
59038;SDS011;44824;43.376;19.630;2023-02-22T05:16:21;53.88;;;35.00;;
59038;SDS011;44824;43.376;19.630;2023-02-22T05:18:47;51.38;;;31.52;;
59038;SDS011;44824;43.376;19.630;2023-02-22T05:21:13;47.17;;;28.83;;
59038;SDS011;44824;43.376;19.630;2023-02-22T05:23:39;50.67;;;33.78;;
59038;SDS011;44824;43.376;19.630;2023-02-22T05:26:05;72.32;;;50.70;;
59038;SDS011;44824;43.376;19.630;2023-02-22T05:31:20;47.42;;;27.90;;
59038;SDS011;44824;43.376;19.630;2023-02-22T05:33:46;109.70;;;68.93;;
59038;SDS011;44824;43.376;19.630;2023-02-22T05:36:12;40.08;;;25.30;;
59038;SDS011;44824;43.376;19.630;2023-02-22T05:38:38;38.28;;;23.30;;
59038;SDS011;44824;43.376;19.630;2023-02-22T05:41:07;36.90;;;23.98;;
59038;SDS011;44824;43.376;19.630;2023-02-22T05:43:40;38.75;;;25.10;;
59038;SDS011;44824;43.376;19.630;2023-02-22T05:46:06;37.70;;;24.00;;
59038;SDS011;44824;43.376;19.630;2023-02-22T05:48:33;37.42;;;23.65;;
59038;SDS011;44824;43.376;19.630;2023-02-22T05:50:59;43.70;;;25.17;;
59038;SDS011;44824;43.376;19.630;2023-02-22T05:53:25;40.42;;;26.08;;
59038;SDS011;44824;43.376;19.630;2023-02-22T05:55:51;40.03;;;25.60;;
59038;SDS011;44824;43.376;19.630;2023-02-22T05:58:20;39.25;;;24.10;;
59038;SDS011;44824;43.376;19.630;2023-02-22T06:00:47;38.30;;;23.35;;
59038;SDS011;44824;43.376;19.630;2023-02-22T06:03:13;38.35;;;23.55;;
59038;SDS011;44824;43.376;19.630;2023-02-22T06:05:39;36.20;;;22.73;;
59038;SDS011;44824;43.376;19.630;2023-02-22T06:08:05;38.08;;;22.55;;
59038;SDS011;44824;43.376;19.630;2023-02-22T06:10:32;36.95;;;22.70;;
59038;SDS011;44824;43.376;19.630;2023-02-22T06:15:55;36.22;;;21.67;;
59038;SDS011;44824;43.376;19.630;2023-02-22T06:18:21;36.65;;;24.90;;
59038;SDS011;44824;43.376;19.630;2023-02-22T06:20:50;39.75;;;25.20;;
59038;SDS011;44824;43.376;19.630;2023-02-22T06:23:16;40.25;;;25.42;;
59038;SDS011;44824;43.376;19.630;2023-02-22T06:25:42;48.53;;;26.25;;
59038;SDS011;44824;43.376;19.630;2023-02-22T06:28:08;40.53;;;26.98;;
59038;SDS011;44824;43.376;19.630;2023-02-22T06:30:34;53.25;;;30.00;;
59038;SDS011;44824;43.376;19.630;2023-02-22T06:33:00;48.33;;;30.80;;
59038;SDS011;44824;43.376;19.630;2023-02-22T06:35:26;51.83;;;31.67;;
59038;SDS011;44824;43.376;19.630;2023-02-22T06:37:52;52.72;;;32.15;;
59038;SDS011;44824;43.376;19.630;2023-02-22T06:40:19;55.78;;;33.60;;
59038;SDS011;44824;43.376;19.630;2023-02-22T06:43:00;60.67;;;35.28;;
59038;SDS011;44824;43.376;19.630;2023-02-22T06:45:27;55.13;;;34.63;;
59038;SDS011;44824;43.376;19.630;2023-02-22T06:52:45;110.85;;;61.78;;
59038;SDS011;44824;43.376;19.630;2023-02-22T06:55:15;90.15;;;55.15;;
59038;SDS011;44824;43.376;19.630;2023-02-22T07:00:28;73.07;;;43.03;;
59038;SDS011;44824;43.376;19.630;2023-02-22T07:02:55;76.57;;;44.03;;
59038;SDS011;44824;43.376;19.630;2023-02-22T07:05:28;91.10;;;47.23;;
59038;SDS011;44824;43.376;19.630;2023-02-22T07:07:59;102.45;;;57.00;;
59038;SDS011;44824;43.376;19.630;2023-02-22T07:10:32;96.43;;;56.58;;
59038;SDS011;44824;43.376;19.630;2023-02-22T07:13:14;104.95;;;61.70;;
59038;SDS011;44824;43.376;19.630;2023-02-22T07:15:40;79.78;;;51.80;;
59038;SDS011;44824;43.376;19.630;2023-02-22T07:18:06;97.95;;;64.15;;
59038;SDS011;44824;43.376;19.630;2023-02-22T07:20:32;81.47;;;51.08;;
59038;SDS011;44824;43.376;19.630;2023-02-22T07:22:59;67.87;;;46.20;;
59038;SDS011;44824;43.376;19.630;2023-02-22T07:25:25;63.67;;;44.45;;
59038;SDS011;44824;43.376;19.630;2023-02-22T07:27:51;85.15;;;55.30;;
59038;SDS011;44824;43.376;19.630;2023-02-22T07:30:21;139.52;;;90.30;;
59038;SDS011;44824;43.376;19.630;2023-02-22T07:32:54;114.95;;;69.35;;
59038;SDS011;44824;43.376;19.630;2023-02-22T07:35:24;68.80;;;47.90;;
59038;SDS011;44824;43.376;19.630;2023-02-22T07:37:51;70.43;;;44.13;;
59038;SDS011;44824;43.376;19.630;2023-02-22T07:40:17;59.55;;;38.13;;
59038;SDS011;44824;43.376;19.630;2023-02-22T07:42:57;75.68;;;48.30;;
59038;SDS011;44824;43.376;19.630;2023-02-22T07:45:24;92.53;;;66.03;;
59038;SDS011;44824;43.376;19.630;2023-02-22T07:50:30;36.90;;;23.95;;
59038;SDS011;44824;43.376;19.630;2023-02-22T07:52:57;63.70;;;48.47;;
59038;SDS011;44824;43.376;19.630;2023-02-22T07:55:24;46.15;;;31.05;;
59038;SDS011;44824;43.376;19.630;2023-02-22T07:57:51;38.55;;;24.52;;
59038;SDS011;44824;43.376;19.630;2023-02-22T08:00:30;39.70;;;25.67;;
59038;SDS011;44824;43.376;19.630;2023-02-22T08:02:58;56.85;;;33.90;;
59038;SDS011;44824;43.376;19.630;2023-02-22T08:07:50;42.22;;;26.60;;
59038;SDS011;44824;43.376;19.630;2023-02-22T08:10:17;28.70;;;18.10;;
59038;SDS011;44824;43.376;19.630;2023-02-22T08:12:44;24.05;;;15.43;;
59038;SDS011;44824;43.376;19.630;2023-02-22T08:17:52;20.30;;;14.60;;
59038;SDS011;44824;43.376;19.630;2023-02-22T08:20:22;34.33;;;23.42;;
59038;SDS011;44824;43.376;19.630;2023-02-22T08:23:07;44.63;;;34.70;;
59038;SDS011;44824;43.376;19.630;2023-02-22T08:25:42;38.38;;;26.98;;
59038;SDS011;44824;43.376;19.630;2023-02-22T08:28:26;48.17;;;32.45;;
59038;SDS011;44824;43.376;19.630;2023-02-22T08:30:52;32.10;;;24.17;;
59038;SDS011;44824;43.376;19.630;2023-02-22T08:33:18;23.25;;;13.57;;
59038;SDS011;44824;43.376;19.630;2023-02-22T08:35:47;34.20;;;22.35;;
59038;SDS011;44824;43.376;19.630;2023-02-22T08:41:11;31.60;;;23.98;;
59038;SDS011;44824;43.376;19.630;2023-02-22T08:43:37;24.67;;;14.57;;
59038;SDS011;44824;43.376;19.630;2023-02-22T08:46:03;22.50;;;13.27;;
59038;SDS011;44824;43.376;19.630;2023-02-22T08:48:29;36.22;;;25.30;;
59038;SDS011;44824;43.376;19.630;2023-02-22T08:51:15;24.77;;;16.92;;
59038;SDS011;44824;43.376;19.630;2023-02-22T08:53:41;23.23;;;12.65;;
59038;SDS011;44824;43.376;19.630;2023-02-22T08:56:08;29.67;;;20.58;;
59038;SDS011;44824;43.376;19.630;2023-02-22T08:58:37;22.85;;;15.20;;
59038;SDS011;44824;43.376;19.630;2023-02-22T09:01:12;21.65;;;13.00;;
59038;SDS011;44824;43.376;19.630;2023-02-22T09:03:38;20.60;;;12.82;;
59038;SDS011;44824;43.376;19.630;2023-02-22T09:06:04;19.80;;;11.77;;
59038;SDS011;44824;43.376;19.630;2023-02-22T09:08:31;19.48;;;10.18;;
59038;SDS011;44824;43.376;19.630;2023-02-22T09:11:14;29.27;;;20.95;;
59038;SDS011;44824;43.376;19.630;2023-02-22T09:13:40;19.17;;;12.20;;
59038;SDS011;44824;43.376;19.630;2023-02-22T09:16:06;17.67;;;10.20;;
59038;SDS011;44824;43.376;19.630;2023-02-22T09:18:35;22.67;;;14.15;;
59038;SDS011;44824;43.376;19.630;2023-02-22T09:21:01;17.77;;;12.10;;
59038;SDS011;44824;43.376;19.630;2023-02-22T09:23:41;28.90;;;20.95;;
59038;SDS011;44824;43.376;19.630;2023-02-22T09:26:08;16.98;;;10.70;;
59038;SDS011;44824;43.376;19.630;2023-02-22T09:28:43;14.65;;;9.15;;
59038;SDS011;44824;43.376;19.630;2023-02-22T09:31:09;16.75;;;10.77;;
59038;SDS011;44824;43.376;19.630;2023-02-22T09:33:36;20.02;;;14.65;;
59038;SDS011;44824;43.376;19.630;2023-02-22T09:36:02;14.45;;;7.47;;
59038;SDS011;44824;43.376;19.630;2023-02-22T09:38:28;12.97;;;7.40;;
59038;SDS011;44824;43.376;19.630;2023-02-22T09:43:33;12.23;;;6.35;;
59038;SDS011;44824;43.376;19.630;2023-02-22T09:51:41;10.48;;;5.82;;
59038;SDS011;44824;43.376;19.630;2023-02-22T09:54:14;11.05;;;6.28;;
59038;SDS011;44824;43.376;19.630;2023-02-22T09:56:43;14.02;;;6.95;;
59038;SDS011;44824;43.376;19.630;2023-02-22T09:59:10;12.63;;;5.85;;
59038;SDS011;44824;43.376;19.630;2023-02-22T10:01:44;16.45;;;8.35;;
59038;SDS011;44824;43.376;19.630;2023-02-22T10:06:37;11.80;;;5.45;;
59038;SDS011;44824;43.376;19.630;2023-02-22T10:09:08;17.67;;;11.40;;
59038;SDS011;44824;43.376;19.630;2023-02-22T10:16:33;10.43;;;5.53;;
59038;SDS011;44824;43.376;19.630;2023-02-22T10:26:41;14.05;;;6.20;;
59038;SDS011;44824;43.376;19.630;2023-02-22T10:31:57;14.43;;;7.82;;
59038;SDS011;44824;43.376;19.630;2023-02-22T10:34:28;14.57;;;7.47;;
59038;SDS011;44824;43.376;19.630;2023-02-22T10:39:40;15.52;;;8.65;;
59038;SDS011;44824;43.376;19.630;2023-02-22T10:42:06;11.13;;;6.28;;
59038;SDS011;44824;43.376;19.630;2023-02-22T10:44:34;13.63;;;5.10;;
59038;SDS011;44824;43.376;19.630;2023-02-22T10:47:02;10.23;;;5.97;;
59038;SDS011;44824;43.376;19.630;2023-02-22T10:49:33;9.07;;;5.22;;
59038;SDS011;44824;43.376;19.630;2023-02-22T10:52:01;9.73;;;5.97;;
59038;SDS011;44824;43.376;19.630;2023-02-22T10:54:28;11.40;;;7.20;;
59038;SDS011;44824;43.376;19.630;2023-02-22T10:56:56;14.90;;;8.45;;
59038;SDS011;44824;43.376;19.630;2023-02-22T10:59:39;20.50;;;17.30;;
59038;SDS011;44824;43.376;19.630;2023-02-22T11:04:45;14.98;;;6.10;;
59038;SDS011;44824;43.376;19.630;2023-02-22T11:10:04;9.63;;;5.10;;
59038;SDS011;44824;43.376;19.630;2023-02-22T11:12:33;10.68;;;5.60;;
59038;SDS011;44824;43.376;19.630;2023-02-22T11:17:56;9.02;;;4.43;;
59038;SDS011;44824;43.376;19.630;2023-02-22T11:20:29;9.23;;;4.70;;
59038;SDS011;44824;43.376;19.630;2023-02-22T11:22:59;9.52;;;4.50;;
59038;SDS011;44824;43.376;19.630;2023-02-22T11:25:31;10.68;;;5.15;;
59038;SDS011;44824;43.376;19.630;2023-02-22T11:30:39;10.48;;;4.82;;
59038;SDS011;44824;43.376;19.630;2023-02-22T11:36:00;28.40;;;5.38;;
59038;SDS011;44824;43.376;19.630;2023-02-22T11:38:35;15.15;;;5.47;;
59038;SDS011;44824;43.376;19.630;2023-02-22T11:41:20;11.07;;;5.10;;
59038;SDS011;44824;43.376;19.630;2023-02-22T11:43:51;9.32;;;4.30;;
59038;SDS011;44824;43.376;19.630;2023-02-22T11:49:07;8.25;;;4.45;;
59038;SDS011;44824;43.376;19.630;2023-02-22T11:57:06;7.18;;;4.15;;
59038;SDS011;44824;43.376;19.630;2023-02-22T11:59:53;9.13;;;4.85;;
59038;SDS011;44824;43.376;19.630;2023-02-22T12:02:27;15.15;;;5.50;;
59038;SDS011;44824;43.376;19.630;2023-02-22T12:07:28;13.43;;;4.50;;
59038;SDS011;44824;43.376;19.630;2023-02-22T12:22:31;11.77;;;5.85;;
59038;SDS011;44824;43.376;19.630;2023-02-22T12:27:37;20.33;;;9.13;;
59038;SDS011;44824;43.376;19.630;2023-02-22T12:30:10;8.65;;;4.57;;
59038;SDS011;44824;43.376;19.630;2023-02-22T12:32:39;12.57;;;4.78;;
59038;SDS011;44824;43.376;19.630;2023-02-22T12:35:17;8.27;;;4.00;;
59038;SDS011;44824;43.376;19.630;2023-02-22T12:37:50;7.57;;;3.97;;
59038;SDS011;44824;43.376;19.630;2023-02-22T12:53:52;8.25;;;3.92;;
59038;SDS011;44824;43.376;19.630;2023-02-22T13:01:23;7.10;;;3.53;;
59038;SDS011;44824;43.376;19.630;2023-02-22T13:03:50;12.40;;;7.45;;
59038;SDS011;44824;43.376;19.630;2023-02-22T13:06:24;9.90;;;4.47;;
59038;SDS011;44824;43.376;19.630;2023-02-22T13:22:34;9.77;;;3.45;;
59038;SDS011;44824;43.376;19.630;2023-02-22T13:33:59;11.15;;;4.53;;
59038;SDS011;44824;43.376;19.630;2023-02-22T13:36:34;9.32;;;4.82;;
59038;SDS011;44824;43.376;19.630;2023-02-22T13:39:35;8.93;;;5.07;;
59038;SDS011;44824;43.376;19.630;2023-02-22T13:42:05;15.68;;;4.35;;
59038;SDS011;44824;43.376;19.630;2023-02-22T13:52:47;11.05;;;6.07;;
59038;SDS011;44824;43.376;19.630;2023-02-22T13:55:25;9.32;;;5.55;;
59038;SDS011;44824;43.376;19.630;2023-02-22T13:57:58;11.73;;;4.68;;
59038;SDS011;44824;43.376;19.630;2023-02-22T14:00:39;8.30;;;4.10;;
59038;SDS011;44824;43.376;19.630;2023-02-22T14:03:06;11.52;;;4.03;;
59038;SDS011;44824;43.376;19.630;2023-02-22T14:05:46;9.82;;;4.20;;
59038;SDS011;44824;43.376;19.630;2023-02-22T14:19:18;15.73;;;3.25;;
59038;SDS011;44824;43.376;19.630;2023-02-22T14:22:03;20.80;;;3.70;;
59038;SDS011;44824;43.376;19.630;2023-02-22T14:24:41;7.60;;;3.35;;
59038;SDS011;44824;43.376;19.630;2023-02-22T14:27:07;8.50;;;2.90;;
59038;SDS011;44824;43.376;19.630;2023-02-22T14:29:34;6.75;;;2.47;;
59038;SDS011;44824;43.376;19.630;2023-02-22T14:32:10;8.00;;;2.83;;
59038;SDS011;44824;43.376;19.630;2023-02-22T14:37:17;6.28;;;2.90;;
59038;SDS011;44824;43.376;19.630;2023-02-22T14:44:42;7.10;;;3.10;;
59038;SDS011;44824;43.376;19.630;2023-02-22T14:53:04;7.50;;;3.85;;
59038;SDS011;44824;43.376;19.630;2023-02-22T14:56:06;12.95;;;4.80;;
59038;SDS011;44824;43.376;19.630;2023-02-22T14:58:28;10.13;;;4.80;;
59038;SDS011;44824;43.376;19.630;2023-02-22T15:00:55;22.45;;;19.63;;
59038;SDS011;44824;43.376;19.630;2023-02-22T15:06:06;31.00;;;19.92;;
59038;SDS011;44824;43.376;19.630;2023-02-22T15:08:42;25.35;;;14.48;;
59038;SDS011;44824;43.376;19.630;2023-02-22T15:11:33;19.10;;;7.20;;
59038;SDS011;44824;43.376;19.630;2023-02-22T15:13:59;18.58;;;8.88;;
59038;SDS011;44824;43.376;19.630;2023-02-22T15:16:27;25.13;;;6.88;;
59038;SDS011;44824;43.376;19.630;2023-02-22T15:18:54;26.02;;;7.60;;
59038;SDS011;44824;43.376;19.630;2023-02-22T15:21:22;26.55;;;6.93;;
59038;SDS011;44824;43.376;19.630;2023-02-22T15:23:50;21.05;;;7.43;;
59038;SDS011;44824;43.376;19.630;2023-02-22T15:29:21;25.67;;;11.18;;
59038;SDS011;44824;43.376;19.630;2023-02-22T15:34:35;17.23;;;10.98;;
59038;SDS011;44824;43.376;19.630;2023-02-22T15:40:10;34.60;;;16.20;;
59038;SDS011;44824;43.376;19.630;2023-02-22T15:42:53;26.17;;;17.55;;
59038;SDS011;44824;43.376;19.630;2023-02-22T15:48:19;36.22;;;24.77;;
59038;SDS011;44824;43.376;19.630;2023-02-22T15:50:59;48.00;;;27.55;;
59038;SDS011;44824;43.376;19.630;2023-02-22T15:53:34;33.97;;;17.58;;
59038;SDS011;44824;43.376;19.630;2023-02-22T15:56:05;38.60;;;17.90;;
59038;SDS011;44824;43.376;19.630;2023-02-22T15:58:33;33.72;;;16.90;;
59038;SDS011;44824;43.376;19.630;2023-02-22T16:01:08;29.42;;;15.68;;
59038;SDS011;44824;43.376;19.630;2023-02-22T16:03:48;37.38;;;19.13;;
59038;SDS011;44824;43.376;19.630;2023-02-22T16:08:53;43.08;;;23.58;;
59038;SDS011;44824;43.376;19.630;2023-02-22T16:11:37;43.15;;;24.70;;
59038;SDS011;44824;43.376;19.630;2023-02-22T16:14:24;40.17;;;24.00;;
59038;SDS011;44824;43.376;19.630;2023-02-22T16:17:08;41.42;;;23.52;;
59038;SDS011;44824;43.376;19.630;2023-02-22T16:19:39;46.03;;;23.20;;
59038;SDS011;44824;43.376;19.630;2023-02-22T16:22:06;40.65;;;22.02;;
59038;SDS011;44824;43.376;19.630;2023-02-22T16:24:47;42.50;;;20.30;;
59038;SDS011;44824;43.376;19.630;2023-02-22T16:27:17;36.70;;;18.63;;
59038;SDS011;44824;43.376;19.630;2023-02-22T16:30:03;37.38;;;20.05;;
59038;SDS011;44824;43.376;19.630;2023-02-22T16:32:32;40.28;;;21.10;;
59038;SDS011;44824;43.376;19.630;2023-02-22T16:34:58;42.20;;;22.83;;
59038;SDS011;44824;43.376;19.630;2023-02-22T16:37:24;47.40;;;24.65;;
59038;SDS011;44824;43.376;19.630;2023-02-22T16:39:52;55.47;;;30.52;;
59038;SDS011;44824;43.376;19.630;2023-02-22T16:42:21;72.93;;;44.90;;
59038;SDS011;44824;43.376;19.630;2023-02-22T16:44:56;69.05;;;39.28;;
59038;SDS011;44824;43.376;19.630;2023-02-22T16:47:22;62.03;;;34.50;;
59038;SDS011;44824;43.376;19.630;2023-02-22T16:50:06;62.63;;;36.17;;
59038;SDS011;44824;43.376;19.630;2023-02-22T16:52:39;63.83;;;38.55;;
59038;SDS011;44824;43.376;19.630;2023-02-22T16:55:09;63.17;;;37.90;;
59038;SDS011;44824;43.376;19.630;2023-02-22T16:57:37;94.65;;;43.38;;
59038;SDS011;44824;43.376;19.630;2023-02-22T17:00:03;95.43;;;42.45;;
59038;SDS011;44824;43.376;19.630;2023-02-22T17:02:42;75.28;;;42.17;;
59038;SDS011;44824;43.376;19.630;2023-02-22T17:05:11;75.90;;;44.50;;
59038;SDS011;44824;43.376;19.630;2023-02-22T17:07:40;71.95;;;46.30;;
59038;SDS011;44824;43.376;19.630;2023-02-22T17:10:07;74.75;;;49.75;;
59038;SDS011;44824;43.376;19.630;2023-02-22T17:12:39;84.25;;;50.88;;
59038;SDS011;44824;43.376;19.630;2023-02-22T17:15:27;82.68;;;46.70;;
59038;SDS011;44824;43.376;19.630;2023-02-22T17:17:54;96.70;;;46.42;;
59038;SDS011;44824;43.376;19.630;2023-02-22T17:20:20;81.35;;;46.95;;
59038;SDS011;44824;43.376;19.630;2023-02-22T17:23:03;76.45;;;44.08;;
59038;SDS011;44824;43.376;19.630;2023-02-22T17:25:39;74.93;;;48.13;;
59038;SDS011;44824;43.376;19.630;2023-02-22T17:28:06;88.18;;;49.40;;
59038;SDS011;44824;43.376;19.630;2023-02-22T17:30:32;75.43;;;44.30;;
59038;SDS011;44824;43.376;19.630;2023-02-22T17:33:00;120.10;;;73.43;;
59038;SDS011;44824;43.376;19.630;2023-02-22T17:35:29;73.32;;;41.08;;
59038;SDS011;44824;43.376;19.630;2023-02-22T17:37:57;67.22;;;41.47;;
59038;SDS011;44824;43.376;19.630;2023-02-22T17:40:25;97.38;;;64.50;;
59038;SDS011;44824;43.376;19.630;2023-02-22T17:42:51;81.80;;;50.30;;
59038;SDS011;44824;43.376;19.630;2023-02-22T17:45:25;72.40;;;45.38;;
59038;SDS011;44824;43.376;19.630;2023-02-22T17:50:54;71.97;;;44.15;;
59038;SDS011;44824;43.376;19.630;2023-02-22T17:53:21;72.25;;;44.55;;
59038;SDS011;44824;43.376;19.630;2023-02-22T17:55:56;74.88;;;42.85;;
59038;SDS011;44824;43.376;19.630;2023-02-22T17:58:25;78.65;;;40.83;;
59038;SDS011;44824;43.376;19.630;2023-02-22T18:00:54;79.82;;;41.67;;
59038;SDS011;44824;43.376;19.630;2023-02-22T18:03:32;95.88;;;42.83;;
59038;SDS011;44824;43.376;19.630;2023-02-22T18:05:59;69.45;;;36.90;;
59038;SDS011;44824;43.376;19.630;2023-02-22T18:08:35;60.08;;;35.67;;
59038;SDS011;44824;43.376;19.630;2023-02-22T18:18:58;71.30;;;43.70;;
59038;SDS011;44824;43.376;19.630;2023-02-22T18:21:34;76.20;;;43.47;;
59038;SDS011;44824;43.376;19.630;2023-02-22T18:26:53;67.55;;;39.13;;
59038;SDS011;44824;43.376;19.630;2023-02-22T18:32:15;73.45;;;41.78;;
59038;SDS011;44824;43.376;19.630;2023-02-22T18:34:44;78.45;;;43.45;;
59038;SDS011;44824;43.376;19.630;2023-02-22T18:52:45;73.93;;;46.47;;
59038;SDS011;44824;43.376;19.630;2023-02-22T18:55:12;60.25;;;36.00;;
59038;SDS011;44824;43.376;19.630;2023-02-22T19:00:05;54.35;;;34.17;;
59038;SDS011;44824;43.376;19.630;2023-02-22T19:02:31;66.67;;;38.97;;
59038;SDS011;44824;43.376;19.630;2023-02-22T19:04:57;61.25;;;38.35;;
59038;SDS011;44824;43.376;19.630;2023-02-22T19:07:24;70.47;;;38.80;;
59038;SDS011;44824;43.376;19.630;2023-02-22T19:09:51;67.15;;;39.42;;
59038;SDS011;44824;43.376;19.630;2023-02-22T19:12:17;71.47;;;43.85;;
59038;SDS011;44824;43.376;19.630;2023-02-22T19:15:11;72.93;;;45.65;;
59038;SDS011;44824;43.376;19.630;2023-02-22T19:17:52;72.65;;;44.95;;
59038;SDS011;44824;43.376;19.630;2023-02-22T19:23:26;80.20;;;46.17;;
59038;SDS011;44824;43.376;19.630;2023-02-22T19:26:02;88.95;;;51.17;;
59038;SDS011;44824;43.376;19.630;2023-02-22T19:28:28;86.90;;;50.25;;